Armada, Michigan
Current Conditions -  °F | °C
As of 2:58 AM on Thursday 18 Dec 2014 (Local Time) from KMTC Reporting Station
Overcast Overcast  
Wind Chill: 20°   Ceiling: 1700
Heat Index: 29°   Visibility: 10mi
Dew Point: 26°   Wind: 12mph
Humidity: 86%   Direction: 280°W
Pressure: 30.15"   Gusts: NA
Location:  42.84°N, 82.88°W
Report Text: KMTC 180758Z AUTO 28010KT 10SM OVC017 M01/M03 A3015 RMK AO2 SLP220 T10141035 $
Loading
Personal Weather Stations






























Interactive Weather Map New forecast layout! Learn more

10-Day Weather Forecast

Advertisements
Track Severe Weather on mobile